Time;durP1;ratioP1;P1;durP2;ratioP2;P2;SDS_P1;SDS_P2;PMS_P1;PMS_P2;Temp;Humidity;BMP_temperature;BMP_pressure;BME280_temperature;BME280_humidity;BME280_pressure;Samples;Min_cycle;Max_cycle;Signal;HPM_P1;HPM_P2
2022/05/16 00:02:04;;;;;;;8.27;4.00;;;;;;;11.34;100.00;101646.44;5009419;28;20080;-77
2022/05/16 00:04:30;;;;;;;7.80;3.85;;;;;;;11.35;99.65;101650.00;5009429;28;20043;-76
2022/05/16 00:06:55;;;;;;;10.25;4.07;;;;;;;11.36;100.00;101651.72;5010341;28;20025;-75
2022/05/16 00:09:21;;;;;;;5.68;3.53;;;;;;;11.36;100.00;101642.00;5027284;28;20045;-76
2022/05/16 00:11:47;;;;;;;8.50;3.88;;;;;;;11.37;100.00;101649.00;5010891;28;20112;-77
2022/05/16 00:14:12;;;;;;;7.57;3.92;;;;;;;11.37;100.00;101645.47;5028986;28;20102;-75
2022/05/16 00:16:38;;;;;;;6.13;3.60;;;;;;;11.36;99.86;101643.75;5014997;28;20037;-76
2022/05/16 00:19:04;;;;;;;10.15;3.97;;;;;;;11.36;100.00;101638.47;5029993;28;20025;-75
2022/05/16 00:21:31;;;;;;;6.90;3.70;;;;;;;11.35;100.00;101634.06;5030370;28;20095;-76
2022/05/16 00:23:56;;;;;;;8.27;3.80;;;;;;;11.35;100.00;101632.31;5011062;28;20039;-75
2022/05/16 00:26:21;;;;;;;7.28;3.65;;;;;;;11.36;100.00;101634.03;5030506;28;20062;-77
2022/05/16 00:28:47;;;;;;;8.57;4.00;;;;;;;11.36;100.00;101626.06;5031813;28;20120;-75
2022/05/16 00:31:13;;;;;;;7.55;3.65;;;;;;;11.36;100.00;101628.72;5013485;28;20123;-75
2022/05/16 00:33:38;;;;;;;5.50;3.78;;;;;;;11.39;100.00;101625.94;5031294;28;20142;-77
2022/05/16 00:36:04;;;;;;;5.70;3.50;;;;;;;11.39;100.00;101625.94;5030935;28;20029;-76
2022/05/16 00:38:29;;;;;;;5.20;3.50;;;;;;;11.39;99.89;101633.91;5031546;28;20226;-76
2022/05/16 00:40:57;;;;;;;7.95;4.30;;;;;;;11.40;99.97;101629.47;5031676;28;20029;-77
2022/05/16 00:43:52;;;;;;;9.25;3.25;;;;;;;11.43;100.00;101618.75;5027975;28;20040;-74
2022/05/16 00:46:19;;;;;;;6.18;3.78;;;;;;;11.43;99.60;101620.56;5011533;28;20029;-76
2022/05/16 00:48:45;;;;;;;9.25;3.80;;;;;;;11.43;99.15;101618.75;5007384;28;20526;-75
2022/05/16 00:51:15;;;;;;;7.30;3.80;;;;;;;11.43;99.39;101618.75;5011892;28;20040;-76
2022/05/16 00:53:41;;;;;;;5.18;3.70;;;;;;;11.44;99.76;101615.19;5011407;28;20033;-75
2022/05/16 00:56:07;;;;;;;7.40;3.72;;;;;;;11.44;99.66;101599.25;5031989;28;20052;-75
2022/05/16 00:58:33;;;;;;;7.78;3.55;;;;;;;11.45;99.55;101611.63;5031228;28;20128;-76
2022/05/16 01:00:59;;;;;;;5.70;3.58;;;;;;;11.45;99.47;101606.31;4994805;28;20683;-76
2022/05/16 01:06:08;;;;;;;9.68;3.80;;;;;;;11.41;99.63;101602.03;5030421;28;20033;-76
2022/05/16 01:08:37;;;;;;;6.38;3.65;;;;;;;11.40;99.83;101592.38;5007142;28;20096;-76
2022/05/16 01:11:07;;;;;;;7.10;3.88;;;;;;;11.39;99.71;101593.28;5019521;28;20080;-75
2022/05/16 01:13:33;;;;;;;8.70;3.92;;;;;;;11.37;99.37;101593.34;5009231;28;20033;-75
2022/05/16 01:16:00;;;;;;;6.00;4.10;;;;;;;11.36;99.70;101588.09;5007467;28;20422;-75
2022/05/16 01:18:26;;;;;;;6.22;3.53;;;;;;;11.35;99.15;101589.00;5023939;28;20030;-76
2022/05/16 01:21:10;;;;;;;5.53;3.30;;;;;;;11.34;99.16;101592.59;5008517;28;20190;-76
2022/05/16 01:23:48;;;;;;;7.28;3.83;;;;;;;11.32;99.80;101583.84;5010832;28;20041;-76
2022/05/16 01:26:18;;;;;;;8.80;3.53;;;;;;;11.31;99.64;101576.78;4992465;28;20610;-76
2022/05/16 01:28:44;;;;;;;10.07;3.70;;;;;;;11.28;99.25;101585.75;5025441;28;20087;-76
2022/05/16 01:31:09;;;;;;;7.50;3.83;;;;;;;11.26;99.40;101588.44;5025404;28;20420;-76
2022/05/16 01:33:35;;;;;;;5.53;3.55;;;;;;;11.24;99.52;101574.34;5008946;28;20044;-76
2022/05/16 01:36:01;;;;;;;5.43;3.40;;;;;;;11.24;99.63;101568.19;5024254;28;20032;-76
2022/05/16 01:38:27;;;;;;;7.40;3.83;;;;;;;11.24;99.71;101562.91;5009920;28;20206;-77
2022/05/16 01:40:57;;;;;;;6.40;3.80;;;;;;;11.24;99.31;101565.56;5008907;28;20040;-76
2022/05/16 01:43:28;;;;;;;5.80;3.85;;;;;;;11.22;99.32;101557.66;5025412;28;20068;-75
2022/05/16 01:45:54;;;;;;;8.48;4.07;;;;;;;11.21;99.68;101555.91;5007406;28;20041;-76
2022/05/16 01:48:19;;;;;;;5.20;3.80;;;;;;;11.21;99.29;101560.34;5025321;28;20075;-75
2022/05/16 01:50:46;;;;;;;5.38;3.75;;;;;;;11.20;99.18;101551.56;5009194;28;20619;-75
2022/05/16 01:53:12;;;;;;;4.85;3.30;;;;;;;11.20;99.15;101543.59;5011906;28;20656;-75
2022/05/16 01:55:38;;;;;;;8.32;3.70;;;;;;;11.21;99.21;101540.03;5013823;28;20038;-75
2022/05/16 01:58:04;;;;;;;6.20;4.00;;;;;;;11.20;98.88;101548.91;5011457;28;20046;-78
2022/05/16 02:00:31;;;;;;;6.03;3.80;;;;;;;11.22;98.97;101543.56;5010883;28;20111;-77
2022/05/16 02:02:58;;;;;;;6.55;3.83;;;;;;;11.20;99.20;101546.25;5011881;28;20025;-76
2022/05/16 02:05:24;;;;;;;6.75;4.00;;;;;;;11.21;99.31;101553.28;5016169;28;20562;-77
2022/05/16 02:07:50;;;;;;;5.60;3.50;;;;;;;11.23;98.67;101547.94;5020224;28;20938;-76
2022/05/16 02:10:17;;;;;;;6.25;3.35;;;;;;;11.25;98.76;101546.94;5035533;28;20037;-77
2022/05/16 02:12:43;;;;;;;4.07;3.05;;;;;;;11.27;98.29;101550.41;5029140;28;20139;-76
2022/05/16 02:15:12;;;;;;;6.50;3.47;;;;;;;11.28;98.41;101538.03;5017784;28;20043;-76
2022/05/16 02:17:37;;;;;;;4.85;3.03;;;;;;;11.31;98.20;101537.00;4998370;28;20390;-75
2022/05/16 02:20:04;;;;;;;5.68;3.20;;;;;;;11.30;98.56;101532.63;5000650;28;20033;-75
2022/05/16 02:25:13;;;;;;;6.65;3.67;;;;;;;11.28;98.32;101522.13;5027507;28;21840;-75
2022/05/16 02:27:39;;;;;;;7.35;3.58;;;;;;;11.26;98.17;101523.94;5017085;28;20069;-75
2022/05/16 02:30:06;;;;;;;4.78;3.13;;;;;;;11.26;97.97;101523.94;5035314;28;20048;-75
2022/05/16 02:32:31;;;;;;;5.75;3.15;;;;;;;11.27;98.25;101523.91;5032282;28;20108;-76
2022/05/16 02:34:57;;;;;;;4.75;2.95;;;;;;;11.27;98.16;101517.72;5015382;28;20632;-77
2022/05/16 02:37:22;;;;;;;6.32;3.05;;;;;;;11.28;97.83;101520.31;5013403;28;20032;-74
2022/05/16 02:39:48;;;;;;;4.38;3.10;;;;;;;11.32;97.91;101509.63;5030916;28;20029;-76
2022/05/16 02:42:14;;;;;;;7.45;3.20;;;;;;;11.34;98.27;101513.91;5032801;28;21416;-76
2022/05/16 02:44:43;;;;;;;4.13;2.65;;;;;;;11.36;98.14;101513.84;5011871;28;20079;-77
2022/05/16 02:47:14;;;;;;;5.60;2.80;;;;;;;11.37;98.26;101507.63;4990627;28;20097;-76
2022/05/16 02:49:40;;;;;;;3.88;2.90;;;;;;;11.39;98.05;101508.47;5028365;28;20752;-77
2022/05/16 02:52:06;;;;;;;5.38;2.70;;;;;;;11.40;97.63;101497.78;4996447;28;20151;-76
2022/05/16 02:54:31;;;;;;;4.57;2.75;;;;;;;11.44;97.86;101497.66;5012755;28;20044;-77
2022/05/16 02:56:58;;;;;;;4.43;2.53;;;;;;;11.45;97.14;101488.78;5031850;28;20041;-77
2022/05/16 02:59:26;;;;;;;3.65;2.35;;;;;;;11.43;96.84;101494.13;5027740;28;20033;-77
2022/05/16 03:01:51;;;;;;;4.85;2.65;;;;;;;11.42;96.54;101481.81;5008555;28;20024;-76
2022/05/16 03:04:17;;;;;;;3.83;2.45;;;;;;;11.43;96.69;101483.53;5010025;28;20068;-76
2022/05/16 03:06:42;;;;;;;3.90;2.35;;;;;;;11.45;96.33;101478.19;5014364;28;20033;-76
2022/05/16 03:09:08;;;;;;;4.10;2.42;;;;;;;11.46;96.33;101478.13;4989151;28;20132;-76
2022/05/16 03:11:34;;;;;;;3.58;2.55;;;;;;;11.48;95.80;101473.63;5027933;28;20033;-76
2022/05/16 03:13:59;;;;;;;4.63;2.67;;;;;;;11.48;95.93;101476.28;5025063;28;20480;-77
2022/05/16 03:16:25;;;;;;;5.05;2.45;;;;;;;11.50;95.95;101477.06;5011294;28;20037;-76
2022/05/16 03:18:51;;;;;;;6.80;2.72;;;;;;;11.50;95.89;101463.81;5010391;28;20073;-76
2022/05/16 03:21:17;;;;;;;4.38;2.78;;;;;;;11.51;95.82;101472.63;5012463;28;20515;-76
2022/05/16 03:23:43;;;;;;;3.85;2.47;;;;;;;11.52;95.43;101466.41;5010931;28;20499;-76
2022/05/16 03:26:09;;;;;;;3.70;2.40;;;;;;;11.51;95.26;101462.03;5011395;28;20030;-75
2022/05/16 03:28:35;;;;;;;3.78;2.50;;;;;;;11.51;95.16;101462.88;5010173;28;20082;-76
2022/05/16 03:31:01;;;;;;;5.90;2.30;;;;;;;11.51;94.96;101459.38;5011597;28;20339;-75
2022/05/16 03:33:27;;;;;;;4.32;2.45;;;;;;;11.52;94.92;101463.75;5010810;28;20208;-77
2022/05/16 03:35:55;;;;;;;5.65;2.90;;;;;;;11.50;94.63;101458.50;5010913;28;20029;-76
2022/05/16 03:41:13;;;;;;;4.35;2.25;;;;;;;11.48;94.12;101460.34;5012800;28;20025;-76
2022/05/16 03:43:39;;;;;;;3.70;2.30;;;;;;;11.45;94.20;101463.16;5021219;28;20030;-76
2022/05/16 03:46:06;;;;;;;4.90;2.10;;;;;;;11.46;94.16;101458.69;5025333;28;20102;-76
2022/05/16 03:48:32;;;;;;;5.32;2.40;;;;;;;11.45;94.06;101457.84;5027549;28;20025;-75
2022/05/16 03:50:58;;;;;;;5.57;2.40;;;;;;;11.46;94.05;101448.09;4992707;28;20037;-75
2022/05/16 03:53:24;;;;;;;4.22;2.22;;;;;;;11.45;93.81;101449.88;4992267;28;21043;-77
2022/05/16 03:55:50;;;;;;;3.35;2.38;;;;;;;11.45;93.99;101446.38;5012690;28;20037;-75
2022/05/16 03:58:15;;;;;;;5.63;2.30;;;;;;;11.45;93.56;101449.88;5025864;28;20514;-76
2022/05/16 04:00:41;;;;;;;3.63;2.50;;;;;;;11.44;93.64;101449.94;5002869;28;20045;-75
2022/05/16 04:03:07;;;;;;;3.50;2.30;;;;;;;11.41;93.60;101437.66;5009150;28;21246;-75
2022/05/16 04:05:33;;;;;;;2.97;2.30;;;;;;;11.40;93.67;101441.25;5011086;28;20025;-76
2022/05/16 04:07:58;;;;;;;3.35;2.30;;;;;;;11.40;93.74;101442.09;5017308;28;20048;-76
2022/05/16 04:10:24;;;;;;;4.38;2.40;;;;;;;11.39;93.46;101437.72;5028767;28;20045;-75
2022/05/16 04:12:50;;;;;;;3.88;2.20;;;;;;;11.40;93.68;101431.50;5012269;28;20040;-75
2022/05/16 04:15:16;;;;;;;3.45;2.10;;;;;;;11.41;93.59;101440.31;5023765;28;20043;-77
2022/05/16 04:17:42;;;;;;;5.40;2.25;;;;;;;11.41;93.05;101440.31;5012290;28;20049;-75
2022/05/16 04:20:09;;;;;;;3.92;2.10;;;;;;;11.44;92.88;101439.34;5029708;28;20043;-75
2022/05/16 04:22:35;;;;;;;4.90;2.05;;;;;;;11.45;92.92;101447.25;5030081;28;20048;-75
2022/05/16 04:25:00;;;;;;;4.70;2.25;;;;;;;11.45;92.89;101444.59;5029857;28;20460;-76
2022/05/16 04:27:26;;;;;;;4.00;2.00;;;;;;;11.47;92.69;101440.06;5012682;28;20535;-77
2022/05/16 04:29:51;;;;;;;3.47;2.17;;;;;;;11.48;92.94;101436.50;4996904;28;20640;-77
2022/05/16 04:32:17;;;;;;;2.47;2.03;;;;;;;11.52;92.81;101435.47;5012186;28;20048;-78
2022/05/16 04:34:42;;;;;;;6.32;2.15;;;;;;;11.54;92.66;101436.25;5012428;28;20488;-77
2022/05/16 04:37:08;;;;;;;6.80;2.58;;;;;;;11.57;92.42;101440.56;5010210;28;20495;-76
2022/05/16 04:39:34;;;;;;;3.60;2.20;;;;;;;11.61;92.25;101447.47;5031800;28;20033;-75
2022/05/16 04:44:43;;;;;;;7.03;2.22;;;;;;;11.68;91.72;101437.47;5029592;28;20045;-76
2022/05/16 04:47:09;;;;;;;4.68;2.40;;;;;;;11.71;91.77;101437.34;5026350;28;20025;-77
2022/05/16 04:49:36;;;;;;;3.78;2.17;;;;;;;11.73;91.61;101443.47;5030913;28;20446;-76
2022/05/16 04:52:01;;;;;;;3.58;2.40;;;;;;;11.76;91.61;101438.03;5007622;28;20036;-76
2022/05/16 04:54:27;;;;;;;4.28;2.00;;;;;;;11.82;91.55;101440.44;5010416;28;21692;-76
2022/05/16 04:56:53;;;;;;;3.30;2.08;;;;;;;11.88;91.64;101443.75;5013348;28;20517;-76
2022/05/16 04:59:20;;;;;;;4.65;1.95;;;;;;;11.93;91.67;101434.69;5028932;28;20033;-77
2022/05/16 05:01:46;;;;;;;2.45;1.83;;;;;;;12.01;91.59;101441.44;5028524;28;20033;-77
2022/05/16 05:04:11;;;;;;;3.95;1.77;;;;;;;12.07;91.40;101438.56;4996843;28;20090;-76
2022/05/16 05:06:37;;;;;;;3.55;1.90;;;;;;;12.13;91.04;101433.00;5028796;28;20056;-75
2022/05/16 05:09:02;;;;;;;6.50;2.35;;;;;;;12.19;90.75;101443.38;5031474;28;20719;-76
2022/05/16 05:16:56;;;;;;;2.13;1.88;;;;;;;12.32;90.00;101433.06;5029335;28;20495;-76
2022/05/16 05:19:22;;;;;;;3.15;2.08;;;;;;;12.35;89.96;101442.69;5008667;28;20041;-77
2022/05/16 05:21:48;;;;;;;3.35;2.08;;;;;;;12.40;89.69;101442.50;5010687;28;20041;-76
2022/05/16 05:24:14;;;;;;;4.07;1.80;;;;;;;12.48;89.45;101432.41;5011384;28;20029;-77
2022/05/16 05:26:39;;;;;;;3.00;1.90;;;;;;;12.58;89.47;101433.72;5030584;28;20049;-76
2022/05/16 05:29:05;;;;;;;3.85;1.90;;;;;;;12.78;89.46;101439.94;5035295;28;20048;-77
2022/05/16 05:31:31;;;;;;;2.80;1.80;;;;;;;12.99;88.62;101431.91;5015151;28;20048;-77
2022/05/16 05:33:57;;;;;;;2.35;1.90;;;;;;;13.16;88.16;101439.97;5033691;28;20179;-76
2022/05/16 05:36:25;;;;;;;3.10;1.70;;;;;;;13.17;87.19;101433.72;5014514;28;20029;-77
2022/05/16 05:38:51;;;;;;;3.33;1.80;;;;;;;13.15;86.96;101427.63;5016195;28;20032;-77
2022/05/16 05:41:18;;;;;;;4.63;2.05;;;;;;;13.18;86.74;101427.47;5032404;28;20040;-78
2022/05/16 05:43:43;;;;;;;3.00;1.98;;;;;;;13.19;86.54;101428.34;5015444;28;20049;-76
2022/05/16 05:46:09;;;;;;;4.25;2.28;;;;;;;13.33;87.15;101422.34;5033068;28;20033;-76
2022/05/16 05:48:34;;;;;;;2.58;1.98;;;;;;;13.53;87.27;101425.88;5000708;28;20028;-77
2022/05/16 05:51:00;;;;;;;2.17;1.70;;;;;;;13.75;86.67;101424.81;5016103;28;20025;-78
2022/05/16 05:53:25;;;;;;;3.63;1.80;;;;;;;13.93;85.63;101413.25;5031297;28;20106;-74
2022/05/16 05:55:51;;;;;;;2.28;1.90;;;;;;;14.12;85.40;101412.31;4998984;28;20223;-79
2022/05/16 05:58:16;;;;;;;3.28;1.98;;;;;;;14.31;84.58;101403.34;4994632;28;20648;-79
2022/05/16 06:00:43;;;;;;;3.47;2.00;;;;;;;14.47;84.24;101409.63;5030939;28;20049;-78
2022/05/16 06:03:08;;;;;;;2.78;1.98;;;;;;;14.65;84.03;101412.22;5032264;28;20051;-78
2022/05/16 06:05:34;;;;;;;4.75;1.70;;;;;;;14.78;83.51;101415.97;5005916;28;20578;-79
2022/05/16 06:08:00;;;;;;;3.83;2.10;;;;;;;14.99;83.37;101412.25;5033146;28;20123;-80
2022/05/16 06:10:25;;;;;;;3.53;1.75;;;;;;;15.16;82.70;101403.31;5034609;28;20040;-79
2022/05/16 06:12:52;;;;;;;3.63;1.75;;;;;;;15.34;82.82;101396.94;5015331;28;20252;-79
2022/05/16 06:15:18;;;;;;;4.25;1.95;;;;;;;15.55;82.53;101393.09;5029064;28;21539;-79
2022/05/16 06:17:43;;;;;;;3.45;1.95;;;;;;;15.75;81.94;101402.63;5028817;28;20048;-80
2022/05/16 06:20:11;;;;;;;5.10;1.75;;;;;;;15.91;80.95;101391.88;5031840;28;20033;-80
2022/05/16 06:22:38;;;;;;;3.47;1.83;;;;;;;16.10;81.10;101393.50;5027588;28;20574;-77
2022/05/16 06:25:31;;;;;;;3.40;1.90;;;;;;;16.27;79.89;101395.16;5013677;28;20063;-82
2022/05/16 06:28:03;;;;;;;2.25;1.67;;;;;;;16.41;79.67;101387.13;5014498;28;20037;-81
2022/05/16 06:30:29;;;;;;;2.88;1.88;;;;;;;16.52;79.97;101389.16;5033005;28;20430;-81
2022/05/16 06:32:55;;;;;;;3.42;1.70;;;;;;;16.61;78.27;101387.72;5017299;28;20033;-81
2022/05/16 06:35:21;;;;;;;3.88;2.00;;;;;;;16.73;79.20;101387.91;5018647;28;20052;-80
2022/05/16 06:37:46;;;;;;;5.70;2.00;;;;;;;16.88;79.33;101383.41;5034893;28;20553;-81
2022/05/16 06:40:13;;;;;;;2.22;1.90;;;;;;;17.02;78.45;101379.88;5035934;28;20128;-81
2022/05/16 06:42:39;;;;;;;6.10;1.83;;;;;;;17.22;79.01;101382.13;5033838;28;20040;-81
2022/05/16 06:45:06;;;;;;;6.43;2.20;;;;;;;17.39;77.35;101382.84;5017238;28;20308;-81
2022/05/16 06:47:32;;;;;;;4.68;2.13;;;;;;;17.42;76.50;101382.63;5036187;28;20048;-83
2022/05/16 06:49:57;;;;;;;4.35;1.80;;;;;;;17.45;77.18;101377.09;5033887;28;20029;-80
2022/05/16 06:52:24;;;;;;;1.98;1.55;;;;;;;17.50;76.66;101380.28;5035050;28;20044;-82
2022/05/16 06:54:50;;;;;;;3.25;1.73;;;;;;;17.58;76.16;101379.78;5028376;28;20128;-82
2022/05/16 06:57:17;;;;;;;8.13;1.63;;;;;;;17.62;75.67;101385.78;5035361;28;20033;-81
2022/05/16 06:59:42;;;;;;;3.97;1.90;;;;;;;17.67;75.88;101382.81;5033409;28;20037;-81
2022/05/16 07:02:08;;;;;;;4.43;1.83;;;;;;;17.73;76.37;101383.25;5017006;28;20046;-80
2022/05/16 07:04:36;;;;;;;2.55;1.77;;;;;;;17.70;75.17;101385.28;5035381;28;20025;-82
2022/05/16 07:07:04;;;;;;;4.05;1.80;;;;;;;17.80;75.66;101380.19;5016330;28;20036;-81
2022/05/16 07:09:30;;;;;;;2.95;1.80;;;;;;;17.96;74.64;101382.63;5013291;28;20054;-80
2022/05/16 07:11:56;;;;;;;3.22;2.10;;;;;;;18.09;74.74;101380.03;5029638;28;20033;-83
2022/05/16 07:14:21;;;;;;;3.08;1.55;;;;;;;18.16;73.58;101379.50;4991976;28;20567;-81
2022/05/16 07:16:47;;;;;;;2.10;1.70;;;;;;;18.28;74.12;101380.47;5015454;28;20033;-83
2022/05/16 07:19:12;;;;;;;4.50;1.90;;;;;;;18.41;73.75;101376.94;5008264;28;20070;-75
2022/05/16 07:21:38;;;;;;;3.80;1.83;;;;;;;18.59;73.81;101380.13;5013295;28;20032;-76
2022/05/16 07:24:04;;;;;;;4.35;1.77;;;;;;;18.75;72.80;101379.88;5013526;28;20184;-77
2022/05/16 07:29:14;;;;;;;3.45;2.05;;;;;;;18.94;72.22;101389.28;5014319;28;20120;-77
2022/05/16 07:31:40;;;;;;;5.15;1.90;;;;;;;18.98;71.48;101398.81;5012928;28;20442;-76
2022/05/16 07:34:05;;;;;;;2.60;1.80;;;;;;;19.06;71.09;101401.00;5013103;28;20045;-78
2022/05/16 07:36:30;;;;;;;3.33;1.55;;;;;;;19.13;70.34;101407.63;5012874;28;20098;-76
2022/05/16 07:38:56;;;;;;;4.05;1.52;;;;;;;19.24;71.04;101398.78;5028724;28;20064;-76
2022/05/16 07:41:21;;;;;;;4.63;2.00;;;;;;;19.41;70.83;101403.72;5029068;28;20119;-76
2022/05/16 07:43:47;;;;;;;3.35;2.00;;;;;;;19.61;70.00;101398.69;5029389;28;20399;-77
2022/05/16 07:46:12;;;;;;;3.67;2.00;;;;;;;19.81;70.19;101396.34;4996094;28;20491;-76
2022/05/16 07:48:38;;;;;;;4.20;1.60;;;;;;;20.00;69.97;101389.59;5011908;28;20041;-77
2022/05/16 07:51:04;;;;;;;4.75;2.00;;;;;;;20.13;69.30;101395.72;5013397;28;20038;-78
2022/05/16 07:53:30;;;;;;;2.42;1.65;;;;;;;20.27;69.71;101389.25;5023481;28;20049;-77
2022/05/16 07:55:56;;;;;;;4.28;1.80;;;;;;;20.43;69.24;101394.28;5013767;28;20044;-78
2022/05/16 07:58:24;;;;;;;6.78;1.85;;;;;;;20.60;69.43;101392.13;5012182;28;20737;-81
2022/05/16 08:00:50;;;;;;;3.75;1.70;;;;;;;20.73;68.80;101387.47;5010375;28;20036;-80
2022/05/16 08:03:18;;;;;;;4.00;1.90;;;;;;;20.72;68.24;101401.91;4984626;28;20041;-79
2022/05/16 08:05:43;;;;;;;5.38;1.80;;;;;;;20.59;67.00;101396.63;5000551;28;20500;-78
2022/05/16 08:10:55;;;;;;;3.35;1.73;;;;;;;20.21;66.95;101395.16;5011297;28;20092;-79
2022/05/16 08:13:22;;;;;;;4.47;1.73;;;;;;;20.06;67.40;101389.97;5027325;28;20033;-78
2022/05/16 08:15:47;;;;;;;3.45;1.92;;;;;;;20.00;67.23;101389.59;4987167;28;20029;-78
2022/05/16 08:18:13;;;;;;;3.95;1.77;;;;;;;19.99;67.74;101390.56;5017363;28;20098;-79
2022/05/16 08:20:42;;;;;;;3.92;1.75;;;;;;;20.00;67.86;101394.97;5009663;28;20120;-81
2022/05/16 08:23:10;;;;;;;2.30;1.80;;;;;;;20.06;68.09;101386.44;5033226;28;20549;-81
2022/05/16 08:25:35;;;;;;;4.82;2.20;;;;;;;20.12;67.97;101395.84;5036062;28;20029;-80
2022/05/16 08:28:01;;;;;;;2.58;1.65;;;;;;;20.13;67.34;101402.91;5021720;28;20083;-82
2022/05/16 08:30:27;;;;;;;3.92;2.10;;;;;;;20.15;67.56;101395.63;4996230;28;20072;-81
2022/05/16 08:32:58;;;;;;;3.53;2.05;;;;;;;20.27;66.37;101401.88;5014631;28;20119;-80
2022/05/16 08:35:24;;;;;;;2.70;2.15;;;;;;;20.33;66.92;101404.06;5032332;28;20037;-80
2022/05/16 08:40:59;;;;;;;4.40;2.08;;;;;;;20.44;66.66;101404.06;5034462;28;20064;-81
2022/05/16 08:43:48;;;;;;;4.40;2.17;;;;;;;20.59;67.52;101403.84;5022645;28;20717;-81
2022/05/16 08:46:24;;;;;;;3.65;1.85;;;;;;;20.74;66.49;101408.00;5015346;28;20045;-82
2022/05/16 08:48:55;;;;;;;3.42;1.77;;;;;;;20.93;67.12;101403.88;5019712;28;20029;-81
2022/05/16 08:51:26;;;;;;;4.97;2.00;;;;;;;21.17;66.54;101406.41;5008951;28;20441;-81
2022/05/16 08:54:30;;;;;;;1.92;1.67;;;;;;;21.36;64.30;101415.63;5047831;28;20548;-81
2022/05/16 08:56:59;;;;;;;4.15;1.80;;;;;;;21.55;66.43;101409.59;4995923;28;20096;-82
2022/05/16 08:59:26;;;;;;;3.42;1.85;;;;;;;21.73;66.71;101414.41;5020088;28;20036;-81
2022/05/16 09:01:54;;;;;;;2.03;1.58;;;;;;;21.94;66.34;101417.16;5013822;28;20033;-81
2022/05/16 09:04:25;;;;;;;2.70;1.70;;;;;;;22.14;65.10;101405.63;5011977;28;20574;-77
2022/05/16 09:07:22;;;;;;;4.78;2.22;;;;;;;22.41;62.30;101409.63;4994901;28;20033;-76
2022/05/16 09:10:00;;;;;;;2.72;1.70;;;;;;;22.64;64.54;101400.41;5004991;28;20042;-77
2022/05/16 09:12:30;;;;;;;3.05;1.58;;;;;;;22.96;64.06;101405.75;5030797;28;20033;-77
2022/05/16 09:15:11;;;;;;;3.08;1.80;;;;;;;23.11;62.53;101404.38;5025585;28;20040;-77
2022/05/16 09:18:00;;;;;;;3.20;2.08;;;;;;;23.11;58.67;101404.38;5025962;28;20030;-77
2022/05/16 09:21:01;;;;;;;3.00;1.55;;;;;;;23.12;59.95;101400.69;5027441;28;20045;-77
2022/05/16 09:23:44;;;;;;;2.67;1.70;;;;;;;23.05;60.67;101404.94;5009041;28;20053;-77
2022/05/16 09:26:58;;;;;;;3.60;2.10;;;;;;;22.80;57.84;101404.44;5033034;28;20033;-79
2022/05/16 09:29:26;;;;;;;2.35;1.77;;;;;;;22.58;60.08;101411.75;5022880;28;20464;-75
2022/05/16 09:31:55;;;;;;;2.53;1.60;;;;;;;22.46;60.40;101407.38;5014620;28;20029;-74
2022/05/16 09:34:21;;;;;;;3.53;2.10;;;;;;;22.37;61.27;101415.28;5031136;28;20768;-76
2022/05/16 09:36:51;;;;;;;2.78;1.63;;;;;;;22.33;62.19;101404.91;4985489;28;20033;-76
2022/05/16 09:39:20;;;;;;;4.55;2.13;;;;;;;22.33;62.51;101397.66;4996253;28;20025;-75
2022/05/16 09:42:03;;;;;;;4.45;2.17;;;;;;;22.34;61.23;101387.75;5011938;28;20025;-75
2022/05/16 09:44:40;;;;;;;4.97;1.80;;;;;;;22.31;61.62;101383.47;4990912;28;20087;-82
2022/05/16 09:47:34;;;;;;;4.65;2.08;;;;;;;22.35;61.60;101397.53;4996574;28;20044;-80
2022/05/16 09:50:02;;;;;;;2.83;1.85;;;;;;;22.38;62.19;101386.47;5015863;28;20034;-78
2022/05/16 09:52:30;;;;;;;4.13;1.67;;;;;;;22.39;62.01;101388.19;5033766;28;20365;-81
2022/05/16 09:55:08;;;;;;;6.40;2.20;;;;;;;22.47;62.03;101387.50;5025278;28;20091;-78
2022/05/16 09:57:47;;;;;;;3.05;1.92;;;;;;;22.50;60.56;101384.56;5029255;28;20037;-82
2022/05/16 10:00:18;;;;;;;5.18;1.80;;;;;;;22.58;60.75;101387.44;5012580;28;20038;-76
2022/05/16 10:02:53;;;;;;;4.65;1.92;;;;;;;22.62;58.73;101394.28;5013509;28;20041;-75
2022/05/16 10:05:19;;;;;;;2.95;1.73;;;;;;;22.62;59.29;101402.38;4985093;28;20045;-77
2022/05/16 10:07:47;;;;;;;5.25;2.20;;;;;;;22.57;59.04;101407.34;4996584;28;20042;-76
2022/05/16 10:10:22;;;;;;;2.65;1.63;;;;;;;22.52;57.71;101412.28;5015281;28;20041;-77
2022/05/16 10:12:49;;;;;;;3.10;1.90;;;;;;;22.46;58.30;101413.66;5015475;28;20151;-77
2022/05/16 10:15:17;;;;;;;4.68;2.10;;;;;;;22.41;58.65;101415.00;5019872;28;20114;-78
2022/05/16 10:17:44;;;;;;;3.45;2.05;;;;;;;22.35;58.74;101405.63;5014602;28;20037;-78
2022/05/16 10:20:23;;;;;;;5.47;1.77;;;;;;;22.33;58.98;101408.44;5018330;28;20112;-78
2022/05/16 10:22:51;;;;;;;3.78;1.70;;;;;;;22.29;59.56;101423.22;5017566;28;20037;-77
2022/05/16 10:25:22;;;;;;;3.13;1.70;;;;;;;22.28;59.67;101421.47;5015444;28;20265;-81
2022/05/16 10:27:51;;;;;;;3.30;1.80;;;;;;;22.25;58.83;101414.53;5017503;28;20059;-79
2022/05/16 10:30:21;;;;;;;2.67;1.73;;;;;;;22.27;59.55;101425.16;4997367;28;20047;-80
2022/05/16 10:35:38;;;;;;;3.60;1.88;;;;;;;22.35;60.37;101428.03;5016800;28;20032;-79
2022/05/16 10:38:13;;;;;;;4.22;2.25;;;;;;;22.43;60.00;101429.25;5016937;28;20037;-80
2022/05/16 10:40:42;;;;;;;3.53;1.95;;;;;;;22.52;59.63;101433.84;5028607;28;20630;-79
2022/05/16 10:43:39;;;;;;;4.63;1.83;;;;;;;22.67;56.75;101414.59;5031696;28;20495;-76
2022/05/16 10:46:10;;;;;;;4.57;2.33;;;;;;;22.82;57.96;101421.31;5032922;28;20098;-78
2022/05/16 10:48:41;;;;;;;3.45;2.22;;;;;;;22.96;56.73;101430.03;5016164;28;20037;-78
2022/05/16 10:51:55;;;;;;;4.00;2.10;;;;;;;23.05;55.71;101424.66;5025488;28;20605;-79
2022/05/16 10:54:23;;;;;;;4.10;2.30;;;;;;;23.16;56.45;101426.41;4997536;28;20818;-79
2022/05/16 10:56:52;;;;;;;4.80;1.83;;;;;;;23.33;57.28;101432.16;4996725;28;20047;-78
2022/05/16 10:59:36;;;;;;;4.60;2.30;;;;;;;23.56;54.09;101440.00;5027797;28;21368;-78
2022/05/16 11:02:20;;;;;;;7.28;3.00;;;;;;;23.76;54.08;101442.72;5030717;28;20126;-81
2022/05/16 11:04:56;;;;;;;3.70;2.60;;;;;;;23.91;55.14;101443.97;5032371;28;20161;-76
2022/05/16 11:07:39;;;;;;;3.10;2.40;;;;;;;24.01;52.50;101450.25;5022480;28;20021;-75
2022/05/16 11:10:12;;;;;;;3.42;2.25;;;;;;;23.96;53.90;101447.13;5033082;28;20555;-76
2022/05/16 11:12:51;;;;;;;4.28;2.63;;;;;;;23.91;52.56;101449.38;5024884;28;22151;-77
2022/05/16 11:15:30;;;;;;;3.42;2.53;;;;;;;23.89;54.83;101443.28;5024463;28;21007;-78
2022/05/16 11:18:17;;;;;;;3.90;2.38;;;;;;;23.84;55.37;101445.56;5023929;28;20088;-79
2022/05/16 11:20:54;;;;;;;3.42;2.72;;;;;;;23.91;52.95;101441.28;5015740;28;20036;-78
2022/05/16 11:23:45;;;;;;;6.20;2.60;;;;;;;23.99;52.94;101448.69;5007690;28;21498;-77
2022/05/16 11:26:18;;;;;;;3.97;2.80;;;;;;;24.05;53.24;101452.66;5033532;28;20848;-79
2022/05/16 11:31:46;;;;;;;5.97;3.00;;;;;;;23.84;53.14;101449.13;5031226;28;20119;-76
2022/05/16 11:34:19;;;;;;;5.47;2.97;;;;;;;23.66;53.82;101453.53;5033737;28;20446;-75
2022/05/16 11:37:00;;;;;;;5.63;2.95;;;;;;;23.51;53.03;101451.25;5015735;28;20099;-76
2022/05/16 11:39:49;;;;;;;5.85;3.03;;;;;;;23.38;54.14;101451.53;5007443;28;20033;-77
2022/05/16 11:42:29;;;;;;;4.57;2.63;;;;;;;23.28;54.85;101448.75;5031787;28;20688;-76
2022/05/16 11:45:03;;;;;;;4.03;3.03;;;;;;;23.20;55.24;101449.44;5014658;28;20171;-76
2022/05/16 11:47:38;;;;;;;5.63;3.20;;;;;;;23.18;55.88;101448.75;5014234;28;20041;-76
2022/05/16 11:50:27;;;;;;;6.43;3.47;;;;;;;23.17;55.70;101457.84;5013010;28;20559;-76
2022/05/16 11:53:15;;;;;;;5.00;3.33;;;;;;;23.17;56.04;101460.53;5032024;28;20085;-77
2022/05/16 12:01:33;;;;;;;6.90;3.50;;;;;;;23.02;56.78;101451.09;5022608;28;20033;-77
2022/05/16 12:04:13;;;;;;;3.85;3.30;;;;;;;22.97;56.27;101456.03;5015266;28;20156;-78
2022/05/16 12:06:44;;;;;;;4.05;2.92;;;;;;;22.91;56.36;101455.63;5004724;28;20082;-78
2022/05/16 12:09:19;;;;;;;4.40;2.90;;;;;;;22.88;56.29;101472.06;5028043;28;20072;-78
2022/05/16 12:11:58;;;;;;;9.20;3.15;;;;;;;22.88;56.52;101477.47;5019687;28;20064;-77